createdAt,value
2022-10-01T00:01:18.103Z,88.96
2022-10-01T00:03:45.579Z,89.06
2022-10-01T00:06:17.121Z,88.94
2022-10-01T00:08:48.536Z,89.71
2022-10-01T00:11:24.270Z,90.16
2022-10-01T00:13:51.786Z,89.91
2022-10-01T00:16:21.192Z,89.90
2022-10-01T00:18:48.523Z,90.52
2022-10-01T00:21:23.249Z,90.51
2022-10-01T00:24:01.543Z,90.38
2022-10-01T00:26:30.960Z,91.44
2022-10-01T00:29:00.246Z,91.09
2022-10-01T00:31:27.512Z,91.28
2022-10-01T00:33:55.598Z,91.88
2022-10-01T00:36:22.352Z,91.22
2022-10-01T00:38:48.723Z,91.78
2022-10-01T00:41:16.865Z,92.13
2022-10-01T00:43:50.407Z,91.31
2022-10-01T00:46:25.099Z,91.70
2022-10-01T00:49:16.788Z,91.43
2022-10-01T00:51:48.784Z,92.33
2022-10-01T00:54:31.145Z,92.42
2022-10-01T00:56:59.405Z,91.68
2022-10-01T00:59:26.596Z,92.08
2022-10-01T01:01:52.981Z,93.11
2022-10-01T01:04:19.500Z,92.16
2022-10-01T01:06:57.604Z,92.39
2022-10-01T01:09:33.042Z,92.82
2022-10-01T01:12:22.185Z,92.27
2022-10-01T01:15:07.231Z,92.56
2022-10-01T01:17:45.708Z,92.90
2022-10-01T01:20:37.747Z,92.80
2022-10-01T01:23:10.304Z,93.74
2022-10-01T01:25:47.705Z,93.00
2022-10-01T01:28:40.764Z,94.01
2022-10-01T01:31:14.503Z,93.31
2022-10-01T01:33:45.838Z,93.74
2022-10-01T01:36:16.272Z,94.04
2022-10-01T01:38:59.073Z,93.78
2022-10-01T01:41:29.327Z,93.93
2022-10-01T01:43:59.778Z,93.92
2022-10-01T01:46:33.168Z,94.13
2022-10-01T01:49:02.155Z,93.57
2022-10-01T01:51:46.221Z,94.54
2022-10-01T01:54:12.649Z,93.98
2022-10-01T01:56:39.080Z,94.25
2022-10-01T01:59:05.574Z,93.85
2022-10-01T02:01:39.071Z,94.26
2022-10-01T02:04:26.630Z,94.56
2022-10-01T02:07:20.166Z,94.33
2022-10-01T02:10:05.526Z,94.90
2022-10-01T02:12:38.451Z,94.21
2022-10-01T02:15:22.476Z,94.71
2022-10-01T02:18:22.150Z,95.09
2022-10-01T02:20:56.094Z,95.40
2022-10-01T02:23:28.782Z,94.58
2022-10-01T02:25:59.942Z,94.80
2022-10-01T02:28:26.967Z,94.71
2022-10-01T02:30:56.819Z,95.54
2022-10-01T02:33:28.999Z,94.96
2022-10-01T02:35:58.938Z,95.11
2022-10-01T02:38:28.087Z,95.49
2022-10-01T02:41:00.808Z,94.73
2022-10-01T02:43:38.308Z,95.43
2022-10-01T02:46:21.724Z,95.83
2022-10-01T02:48:48.811Z,95.61
2022-10-01T02:51:25.834Z,96.25
2022-10-01T02:53:59.603Z,96.24
2022-10-01T02:56:48.776Z,95.90
2022-10-01T02:59:15.929Z,96.31
2022-10-01T03:01:42.949Z,95.95
2022-10-01T03:04:09.389Z,96.23
2022-10-01T03:06:35.835Z,96.19
2022-10-01T03:09:02.763Z,95.85
2022-10-01T03:11:29.852Z,96.20
2022-10-01T03:13:56.918Z,95.85
2022-10-01T03:16:23.421Z,96.13
2022-10-01T03:18:49.959Z,96.23
2022-10-01T03:21:16.942Z,96.09
2022-10-01T03:23:43.536Z,96.40
2022-10-01T03:26:10.173Z,96.08
2022-10-01T03:28:36.709Z,96.29
2022-10-01T03:31:10.607Z,95.55
2022-10-01T03:33:37.261Z,95.91
2022-10-01T03:36:04.540Z,96.00
2022-10-01T03:38:31.873Z,95.91
2022-10-01T03:40:58.311Z,96.01
2022-10-01T03:43:27.096Z,95.90
2022-10-01T03:45:53.672Z,95.74
2022-10-01T03:48:21.100Z,95.65
2022-10-01T03:50:59.205Z,95.73
2022-10-01T03:53:27.449Z,96.30
2022-10-01T03:55:55.194Z,96.50
2022-10-01T03:58:23.030Z,96.45
2022-10-01T04:00:50.251Z,96.26
2022-10-01T04:03:17.597Z,96.64
2022-10-01T04:05:45.041Z,96.01
2022-10-01T04:08:13.744Z,96.57
2022-10-01T04:10:41.235Z,96.38
2022-10-01T04:13:08.107Z,96.24
2022-10-01T04:15:34.832Z,96.21
2022-10-01T04:18:05.489Z,96.81
2022-10-01T04:20:33.677Z,96.55
2022-10-01T04:23:00.301Z,96.56
2022-10-01T04:25:27.977Z,95.91
2022-10-01T04:28:03.897Z,96.70
2022-10-01T04:30:36.648Z,96.25
2022-10-01T04:33:05.169Z,96.16
2022-10-01T04:35:32.063Z,96.22
2022-10-01T04:38:01.934Z,96.78
2022-10-01T04:40:28.725Z,96.93
2022-10-01T04:42:55.465Z,96.15
2022-10-01T04:45:22.056Z,96.37
2022-10-01T04:47:54.148Z,96.81
2022-10-01T04:50:22.574Z,96.87
2022-10-01T04:52:51.020Z,96.59
2022-10-01T04:55:18.646Z,96.39
2022-10-01T04:57:45.704Z,97.01
2022-10-01T05:00:16.048Z,97.15
2022-10-01T05:02:47.963Z,96.50
2022-10-01T05:05:15.720Z,97.00
2022-10-01T05:07:42.588Z,97.35
2022-10-01T05:10:12.655Z,96.96
2022-10-01T05:12:39.134Z,96.83
2022-10-01T05:15:06.180Z,96.74
2022-10-01T05:17:33.085Z,96.75
2022-10-01T05:19:59.799Z,97.19
2022-10-01T05:22:26.400Z,97.48
2022-10-01T05:24:52.954Z,97.15
2022-10-01T05:27:19.826Z,97.44
2022-10-01T05:29:46.809Z,97.00
2022-10-01T05:32:13.754Z,97.27
2022-10-01T05:34:40.492Z,96.62
2022-10-01T05:37:06.968Z,97.30
2022-10-01T05:39:33.652Z,96.91
2022-10-01T05:42:06.149Z,97.45
2022-10-01T05:44:37.955Z,97.27
2022-10-01T05:47:07.869Z,97.35
2022-10-01T05:49:34.394Z,96.96
2022-10-01T05:52:01.173Z,96.98
2022-10-01T05:54:29.540Z,96.97
2022-10-01T05:56:57.150Z,97.30
2022-10-01T05:59:28.439Z,97.79
2022-10-01T06:01:57.559Z,97.18
2022-10-01T06:04:24.180Z,97.17
2022-10-01T06:06:50.826Z,97.32
2022-10-01T06:09:17.616Z,97.66
2022-10-01T06:11:44.267Z,97.20
2022-10-01T06:14:10.767Z,97.33
2022-10-01T06:16:37.293Z,97.09
2022-10-01T06:19:04.099Z,97.61
2022-10-01T06:21:31.941Z,97.32
2022-10-01T06:23:58.768Z,97.91
2022-10-01T06:26:25.254Z,97.89
2022-10-01T06:28:52.797Z,97.47
2022-10-01T06:31:21.106Z,97.76
2022-10-01T06:33:47.756Z,97.36
2022-10-01T06:36:14.153Z,97.48
2022-10-01T06:38:40.925Z,97.67
2022-10-01T06:41:07.309Z,98.04
2022-10-01T06:43:33.752Z,97.52
2022-10-01T06:46:05.231Z,97.37
2022-10-01T06:48:32.552Z,98.19
2022-10-01T06:50:59.522Z,97.49
2022-10-01T06:53:27.824Z,97.44
2022-10-01T06:55:55.130Z,97.27
2022-10-01T06:58:26.175Z,97.31
2022-10-01T07:00:58.202Z,97.26
2022-10-01T07:03:24.827Z,97.19
2022-10-01T07:05:51.341Z,97.22
2022-10-01T07:08:18.017Z,97.45
2022-10-01T07:10:45.569Z,96.96
2022-10-01T07:13:17.651Z,96.97
2022-10-01T07:15:45.193Z,96.27
2022-10-01T07:18:12.378Z,95.92
2022-10-01T07:20:40.438Z,96.25
2022-10-01T07:23:10.764Z,95.95
2022-10-01T07:25:38.901Z,96.00
2022-10-01T07:28:07.142Z,96.05
2022-10-01T07:30:34.165Z,96.57
2022-10-01T07:33:00.724Z,96.98
2022-10-01T07:35:27.194Z,96.61
2022-10-01T07:37:55.167Z,97.26
2022-10-01T07:40:21.815Z,96.89
2022-10-01T07:42:56.497Z,97.70
2022-10-01T07:45:24.774Z,97.18
2022-10-01T07:48:01.334Z,97.57
2022-10-01T07:50:32.675Z,97.91
2022-10-01T07:52:59.541Z,97.02
2022-10-01T07:55:28.284Z,97.31
2022-10-01T07:57:56.659Z,97.43
2022-10-01T08:00:25.234Z,97.98
2022-10-01T08:02:55.850Z,98.58
2022-10-01T08:05:25.970Z,97.20
2022-10-01T08:07:54.032Z,96.73
2022-10-01T08:10:23.226Z,95.98
2022-10-01T08:12:49.884Z,96.15
2022-10-01T08:15:18.100Z,96.11
2022-10-01T08:17:45.227Z,96.49
2022-10-01T08:20:13.857Z,96.08
2022-10-01T08:22:42.266Z,96.76
2022-10-01T08:25:09.656Z,96.34
2022-10-01T08:27:36.881Z,96.00
2022-10-01T08:30:04.391Z,96.63
2022-10-01T08:32:31.119Z,96.34
2022-10-01T08:34:58.944Z,95.17
2022-10-01T08:37:29.406Z,95.67
2022-10-01T08:39:56.705Z,94.47
2022-10-01T08:42:33.344Z,96.16
2022-10-01T08:45:04.505Z,95.59
2022-10-01T08:47:41.314Z,94.93
2022-10-01T08:50:35.518Z,93.85
2022-10-01T08:53:06.242Z,93.06
2022-10-01T08:55:37.363Z,92.47
2022-10-01T08:58:06.618Z,92.89
2022-10-01T09:00:41.882Z,93.20
2022-10-01T09:03:12.961Z,93.02
2022-10-01T09:06:00.179Z,93.39
2022-10-01T09:08:45.121Z,93.29
2022-10-01T09:11:24.785Z,92.43
2022-10-01T09:14:26.976Z,92.08
2022-10-01T09:17:21.408Z,91.90
2022-10-01T09:20:11.594Z,92.10
2022-10-01T09:22:42.798Z,89.66
2022-10-01T09:25:09.091Z,90.29
2022-10-01T09:27:38.153Z,91.05
2022-10-01T09:30:11.511Z,90.50
2022-10-01T09:33:11.787Z,89.87
2022-10-01T09:35:46.461Z,89.65
2022-10-01T09:38:13.048Z,89.50
2022-10-01T09:40:53.415Z,89.11
2022-10-01T09:43:21.835Z,86.23
2022-10-01T09:45:49.632Z,88.59
2022-10-01T09:48:25.571Z,87.31
2022-10-01T09:50:58.912Z,87.87
2022-10-01T09:53:32.468Z,86.26
2022-10-01T09:56:05.189Z,85.56
2022-10-01T09:58:37.208Z,84.53
2022-10-01T10:01:10.716Z,81.30
2022-10-01T10:03:37.115Z,81.96
2022-10-01T10:06:06.093Z,82.78
2022-10-01T10:08:42.329Z,81.85
2022-10-01T10:11:11.105Z,82.00
2022-10-01T10:13:40.947Z,82.63
2022-10-01T10:16:28.638Z,83.14
2022-10-01T10:18:58.658Z,81.67
2022-10-01T10:21:29.457Z,82.38
2022-10-01T10:24:01.685Z,81.91
2022-10-01T10:26:32.542Z,80.39
2022-10-01T10:29:02.131Z,82.25
2022-10-01T10:31:36.550Z,80.61
2022-10-01T10:34:32.006Z,78.12
2022-10-01T10:37:01.017Z,76.18
2022-10-01T10:39:31.539Z,75.46
2022-10-01T10:41:59.946Z,77.61
2022-10-01T10:44:31.931Z,75.48
2022-10-01T10:47:05.285Z,76.62
2022-10-01T10:49:38.024Z,74.36
2022-10-01T10:52:19.723Z,75.60
2022-10-01T10:54:48.608Z,75.83
2022-10-01T10:57:24.865Z,75.61
2022-10-01T11:00:12.803Z,76.58
2022-10-01T11:02:48.931Z,76.25
2022-10-01T11:05:21.807Z,74.70
2022-10-01T11:07:50.737Z,75.44
2022-10-01T11:10:28.198Z,74.63
2022-10-01T11:13:17.230Z,75.04
2022-10-01T11:15:47.073Z,75.40
2022-10-01T11:18:25.534Z,75.33
2022-10-01T11:21:01.035Z,76.07
2022-10-01T11:23:34.096Z,75.10
2022-10-01T11:26:13.831Z,74.43
2022-10-01T11:28:49.536Z,72.46
2022-10-01T11:31:34.030Z,71.65
2022-10-01T11:34:25.446Z,73.39
2022-10-01T11:37:01.159Z,72.71
2022-10-01T11:39:31.105Z,72.37
2022-10-01T11:42:16.815Z,71.82
2022-10-01T11:44:49.059Z,71.41
2022-10-01T11:47:26.213Z,71.26
2022-10-01T11:50:03.220Z,68.65
2022-10-01T11:52:40.817Z,69.29
2022-10-01T11:55:28.811Z,68.28
2022-10-01T11:58:21.214Z,68.33
2022-10-01T12:00:58.639Z,68.73
2022-10-01T12:03:35.097Z,68.08
2022-10-01T12:06:03.327Z,66.60
2022-10-01T12:08:32.842Z,67.24
2022-10-01T12:11:08.832Z,66.34
2022-10-01T12:13:41.061Z,67.37
2022-10-01T12:16:18.508Z,65.13
2022-10-01T12:19:00.119Z,66.00
2022-10-01T12:21:37.563Z,66.64
2022-10-01T12:24:05.598Z,66.79
2022-10-01T12:27:01.884Z,65.51
2022-10-01T12:29:47.835Z,66.12
2022-10-01T12:32:34.008Z,66.93
2022-10-01T12:35:35.595Z,66.76
2022-10-01T12:38:08.320Z,65.60
2022-10-01T12:40:55.023Z,67.66
2022-10-01T12:43:53.055Z,68.56
2022-10-01T12:46:45.291Z,67.24
2022-10-01T12:49:52.517Z,68.97
2022-10-01T12:52:24.554Z,68.90
2022-10-01T12:55:19.306Z,68.01
2022-10-01T12:58:12.850Z,68.53
2022-10-01T13:01:10.249Z,67.15
2022-10-01T13:03:39.640Z,67.20
2022-10-01T13:06:21.327Z,64.82
2022-10-01T13:09:07.832Z,66.34
2022-10-01T13:11:50.250Z,66.08
2022-10-01T13:14:18.997Z,64.65
2022-10-01T13:16:54.357Z,64.15
2022-10-01T13:19:35.571Z,65.28
2022-10-01T13:22:08.984Z,65.62
2022-10-01T13:24:50.854Z,63.85
2022-10-01T13:27:37.802Z,64.64
2022-10-01T13:30:24.459Z,65.66
2022-10-01T13:32:55.078Z,65.52
2022-10-01T13:35:39.320Z,64.84
2022-10-01T13:38:34.197Z,65.12
2022-10-01T13:41:04.600Z,66.01
2022-10-01T13:43:34.110Z,65.20
2022-10-01T13:46:09.740Z,66.06
2022-10-01T13:48:45.176Z,66.52
2022-10-01T13:51:14.151Z,66.44
2022-10-01T13:53:43.715Z,66.59
2022-10-01T13:56:13.833Z,67.52
2022-10-01T13:58:47.186Z,67.18
2022-10-01T14:01:21.406Z,67.02
2022-10-01T14:04:02.421Z,66.93
2022-10-01T14:06:42.079Z,67.88
2022-10-01T14:09:14.325Z,67.10
2022-10-01T14:12:03.695Z,67.18
2022-10-01T14:14:58.266Z,66.09
2022-10-01T14:17:36.146Z,66.86
2022-10-01T14:20:03.760Z,66.39
2022-10-01T14:23:03.240Z,67.13
2022-10-01T14:25:56.227Z,66.43
2022-10-01T14:28:40.776Z,68.05
2022-10-01T14:31:26.088Z,73.44
2022-10-01T14:34:19.922Z,76.21
2022-10-01T14:36:55.100Z,78.50
2022-10-01T14:39:21.419Z,78.72
2022-10-01T14:41:50.302Z,79.91
2022-10-01T14:44:40.992Z,79.07
2022-10-01T14:47:20.926Z,80.06
2022-10-01T14:49:48.461Z,81.40
2022-10-01T14:52:28.023Z,80.23
2022-10-01T14:55:01.907Z,79.90
2022-10-01T14:57:38.136Z,79.37
2022-10-01T15:00:12.626Z,79.49
2022-10-01T15:02:52.261Z,79.74
2022-10-01T15:05:21.691Z,79.17
2022-10-01T15:07:48.119Z,79.29
2022-10-01T15:10:19.315Z,79.99
2022-10-01T15:12:49.483Z,79.54
2022-10-01T15:15:38.778Z,79.32
2022-10-01T15:18:05.516Z,78.16
2022-10-01T15:20:32.203Z,77.42
2022-10-01T15:23:01.451Z,76.51
2022-10-01T15:25:31.120Z,75.35
2022-10-01T15:27:57.699Z,74.83
2022-10-01T15:30:27.433Z,74.48
2022-10-01T15:32:54.365Z,73.93
2022-10-01T15:35:23.566Z,74.14
2022-10-01T15:37:51.504Z,73.74
2022-10-01T15:40:27.070Z,74.01
2022-10-01T15:43:14.352Z,73.47
2022-10-01T15:45:41.974Z,73.50
2022-10-01T15:48:28.226Z,74.13
2022-10-01T15:51:05.390Z,72.75
2022-10-01T15:53:34.375Z,73.36
2022-10-01T15:56:10.733Z,73.69
2022-10-01T15:58:45.878Z,73.95
2022-10-01T16:01:21.429Z,75.05
2022-10-01T16:04:07.335Z,73.17
2022-10-01T16:06:42.052Z,74.19
2022-10-01T16:09:17.476Z,73.80
2022-10-01T16:11:58.785Z,72.66
2022-10-01T16:14:30.692Z,72.75
2022-10-01T16:17:18.881Z,74.05
2022-10-01T16:19:46.111Z,74.03
2022-10-01T16:22:27.669Z,73.32
2022-10-01T16:25:01.000Z,73.58
2022-10-01T16:27:35.491Z,73.37
2022-10-01T16:30:11.807Z,73.33
2022-10-01T16:32:38.391Z,73.53
2022-10-01T16:35:19.954Z,73.75
2022-10-01T16:37:49.557Z,73.98
2022-10-01T16:40:17.835Z,74.63
2022-10-01T16:42:45.761Z,73.40
2022-10-01T16:45:18.166Z,74.47
2022-10-01T16:47:45.554Z,73.96
2022-10-01T16:50:18.310Z,73.96
2022-10-01T16:52:44.817Z,73.25
2022-10-01T16:55:18.126Z,74.82
2022-10-01T16:57:44.562Z,74.79
2022-10-01T17:00:15.126Z,74.22
2022-10-01T17:02:42.330Z,73.73
2022-10-01T17:05:38.573Z,73.96
2022-10-01T17:08:10.951Z,75.39
2022-10-01T17:10:59.830Z,75.03
2022-10-01T17:13:32.607Z,76.36
2022-10-01T17:15:59.806Z,75.51
2022-10-01T17:18:26.223Z,76.16
2022-10-01T17:20:52.708Z,76.84
2022-10-01T17:23:20.467Z,75.92
2022-10-01T17:25:46.937Z,74.51
2022-10-01T17:28:20.311Z,73.44
2022-10-01T17:30:48.290Z,75.00
2022-10-01T17:33:16.853Z,75.19
2022-10-01T17:35:45.830Z,75.97
2022-10-01T17:38:12.567Z,76.88
2022-10-01T17:40:41.363Z,77.20
2022-10-01T17:43:10.723Z,77.65
2022-10-01T17:45:37.205Z,77.78
2022-10-01T17:48:03.897Z,77.91
2022-10-01T17:50:30.252Z,77.97
2022-10-01T17:52:58.632Z,78.18
2022-10-01T17:55:25.347Z,78.33
2022-10-01T17:57:52.032Z,78.94
2022-10-01T18:00:19.243Z,78.65
2022-10-01T18:02:46.359Z,78.65
2022-10-01T18:05:14.711Z,78.63
2022-10-01T18:07:42.420Z,79.43
2022-10-01T18:10:12.250Z,79.23
2022-10-01T18:12:38.771Z,79.51
2022-10-01T18:15:05.685Z,79.59
2022-10-01T18:17:33.116Z,79.77
2022-10-01T18:19:59.668Z,79.47
2022-10-01T18:22:27.221Z,79.55
2022-10-01T18:24:53.754Z,80.13
2022-10-01T18:27:20.251Z,80.08
2022-10-01T18:29:46.579Z,80.27
2022-10-01T18:32:23.262Z,79.67
2022-10-01T18:34:55.639Z,79.85
2022-10-01T18:37:53.211Z,80.48
2022-10-01T18:40:33.297Z,80.33
2022-10-01T18:43:15.811Z,80.61
2022-10-01T18:46:00.455Z,80.17
2022-10-01T18:48:41.934Z,80.63
2022-10-01T18:51:52.099Z,80.71
2022-10-01T18:54:41.681Z,80.98
2022-10-01T18:57:14.580Z,80.58
2022-10-01T19:00:08.769Z,80.10
2022-10-01T19:03:04.747Z,80.90
2022-10-01T19:06:00.383Z,80.19
2022-10-01T19:08:49.195Z,80.70
2022-10-01T19:11:49.816Z,80.60
2022-10-01T19:14:41.094Z,81.09
2022-10-01T19:17:42.353Z,81.59
2022-10-01T19:20:37.742Z,80.83
2022-10-01T19:23:52.138Z,80.75
2022-10-01T19:26:21.514Z,81.39
2022-10-01T19:28:59.966Z,80.99
2022-10-01T19:31:57.056Z,81.39
2022-10-01T19:34:30.698Z,81.14
2022-10-01T19:37:03.797Z,81.23
2022-10-01T19:39:36.217Z,81.37
2022-10-01T19:42:08.164Z,81.13
2022-10-01T19:45:04.493Z,81.45
2022-10-01T19:47:45.849Z,81.87
2022-10-01T19:50:24.874Z,81.48
2022-10-01T19:52:55.253Z,81.32
2022-10-01T19:55:23.861Z,81.92
2022-10-01T19:57:50.722Z,81.22
2022-10-01T20:00:21.615Z,81.65
2022-10-01T20:02:54.566Z,81.67
2022-10-01T20:05:25.462Z,80.79
2022-10-01T20:08:15.969Z,80.91
2022-10-01T20:10:53.247Z,80.77
2022-10-01T20:13:26.941Z,81.20
2022-10-01T20:16:27.143Z,81.56
2022-10-01T20:19:15.867Z,80.75
2022-10-01T20:21:45.076Z,80.33
2022-10-01T20:24:33.883Z,80.39
2022-10-01T20:27:19.712Z,80.91
2022-10-01T20:30:05.691Z,80.77
2022-10-01T20:33:04.134Z,80.84
2022-10-01T20:36:04.135Z,80.92
2022-10-01T20:38:38.149Z,81.16
2022-10-01T20:41:17.103Z,81.13
2022-10-01T20:43:51.282Z,81.29
2022-10-01T20:46:45.481Z,81.36
2022-10-01T20:49:18.058Z,81.58
2022-10-01T20:52:00.252Z,81.57
2022-10-01T20:54:39.815Z,82.04
2022-10-01T20:57:17.592Z,81.96
2022-10-01T20:59:48.769Z,82.35
2022-10-01T21:02:37.900Z,82.51
2022-10-01T21:05:16.429Z,82.76
2022-10-01T21:07:59.140Z,82.24
2022-10-01T21:10:36.932Z,82.46
2022-10-01T21:13:22.289Z,83.07
2022-10-01T21:16:19.304Z,83.13
2022-10-01T21:18:53.022Z,83.58
2022-10-01T21:21:32.048Z,83.13
2022-10-01T21:24:26.382Z,83.04
2022-10-01T21:27:17.330Z,83.47
2022-10-01T21:29:57.958Z,83.67
2022-10-01T21:32:48.874Z,83.94
2022-10-01T21:35:31.207Z,83.98
2022-10-01T21:38:15.522Z,84.01
2022-10-01T21:41:05.810Z,84.36
2022-10-01T21:43:47.235Z,84.87
2022-10-01T21:46:40.120Z,84.38
2022-10-01T21:49:16.880Z,85.20
2022-10-01T21:51:58.630Z,85.00
2022-10-01T21:54:44.739Z,85.08
2022-10-01T22:00:12.595Z,86.37
2022-10-01T22:02:49.961Z,86.47
2022-10-01T22:05:43.711Z,87.00
2022-10-01T22:08:14.503Z,86.75
2022-10-01T22:10:45.667Z,87.14
2022-10-01T22:13:18.899Z,87.76
2022-10-01T22:15:49.050Z,87.77
2022-10-01T22:18:24.398Z,87.92
2022-10-01T22:20:53.354Z,87.81
2022-10-01T22:23:19.942Z,88.03
2022-10-01T22:26:03.437Z,88.31
2022-10-01T22:28:37.081Z,88.63
2022-10-01T22:31:06.479Z,88.89
2022-10-01T22:33:38.279Z,88.98
2022-10-01T22:36:20.240Z,88.99
2022-10-01T22:38:53.950Z,88.81
2022-10-01T22:41:35.613Z,88.96
2022-10-01T22:44:12.366Z,89.47
2022-10-01T22:47:00.629Z,89.03
2022-10-01T22:49:49.180Z,89.58
2022-10-01T22:52:48.497Z,89.83
2022-10-01T22:55:33.048Z,89.33
2022-10-01T22:58:14.727Z,89.86
2022-10-01T23:01:03.988Z,89.03
2022-10-01T23:03:49.124Z,89.11
2022-10-01T23:06:28.681Z,88.93
2022-10-01T23:09:31.158Z,88.66
2022-10-01T23:12:29.813Z,88.48
2022-10-01T23:15:27.810Z,88.29
2022-10-01T23:18:19.928Z,87.53
2022-10-01T23:21:14.594Z,87.66
2022-10-01T23:23:45.966Z,88.03
2022-10-01T23:26:35.649Z,88.69
2022-10-01T23:29:21.249Z,88.88
2022-10-01T23:31:58.950Z,88.46
2022-10-01T23:34:44.179Z,89.14
2022-10-01T23:37:22.330Z,88.96
2022-10-01T23:40:07.674Z,88.83
2022-10-01T23:42:42.484Z,89.23
2022-10-01T23:45:11.839Z,88.98
2022-10-01T23:47:45.334Z,88.41
2022-10-01T23:50:21.385Z,88.21
2022-10-01T23:52:59.954Z,88.32
2022-10-01T23:56:18.680Z,87.77
2022-10-01T23:58:50.516Z,87.73
